Airport View

Enter AWOS ICAO identifier for current METAR.

ex. KFNL

K4M9 041555Z AUTO 13006KT 10SM CLR 31/24 A2997 RMK AO2 PWINO

4 Jul 2020 15:59

Frequency: 118.325

Phone: 870-857-9702

Other Area AWOS: KARG - KPOF - KTKX - KMAW

TAF KJBR 041135Z 0412/0512 03005KT P6SM FEW250 FM041500 08005KT P6SM FEW250 FM050400 05005KT P6SM FEW250